Weather at Langport Airstrip

Public forecast

Using degrees Celsius for public forecast. Weather courtesy of forecast.io.

Closest aviation weather report (METAR) to Langport Airstrip

Closest report is RNAS Yeovilton, 8.2 nm (15.3 km) ESE. Retrieved 2021/06/12 11:18 UTC (0 seconds ago):

EGDY 121118Z 31008KT 9999 FEW020 19/14 Q1024 NOSIG RMK BLU BLU

Closest aviation forecast (TAF) to Langport Airstrip

Forecast is more than 12 hours old.

Closest forecast is RNAS Yeovilton, 8.2 nm (15.3 km) ESE. Retrieved 2020/10/05 06:30 UTC (8 months ago):

TAF TAF EGDY 051025Z 0506/0518 CNL